sensor_id;sensor_type;location;lat;lon;timestamp;P1;durP1;ratioP1;P2;durP2;ratioP2
18893;SDS011;9579;49.488;8.226;2022-11-21T06:01:31;4.60;;;2.20;;
18893;SDS011;9579;49.488;8.226;2022-11-21T06:04:48;3.70;;;2.30;;
18893;SDS011;9579;49.488;8.226;2022-11-21T06:12:23;5.23;;;2.37;;
18893;SDS011;9579;49.488;8.226;2022-11-21T06:15:51;4.83;;;2.27;;
18893;SDS011;9579;49.488;8.226;2022-11-21T06:19:31;5.27;;;2.37;;
18893;SDS011;9579;49.488;8.226;2022-11-21T06:22:45;3.17;;;2.23;;
18893;SDS011;9579;49.488;8.226;2022-11-21T06:25:47;4.00;;;2.37;;
18893;SDS011;9579;49.488;8.226;2022-11-21T06:28:41;5.03;;;2.23;;
18893;SDS011;9579;49.488;8.226;2022-11-21T06:31:29;4.53;;;2.30;;
18893;SDS011;9579;49.488;8.226;2022-11-21T06:34:16;4.93;;;2.30;;
18893;SDS011;9579;49.488;8.226;2022-11-21T06:37:05;3.47;;;2.60;;
18893;SDS011;9579;49.488;8.226;2022-11-21T06:39:52;4.90;;;2.67;;
18893;SDS011;9579;49.488;8.226;2022-11-21T06:42:39;4.47;;;2.50;;
18893;SDS011;9579;49.488;8.226;2022-11-21T06:45:26;4.33;;;2.17;;
18893;SDS011;9579;49.488;8.226;2022-11-21T06:48:13;3.57;;;2.37;;
18893;SDS011;9579;49.488;8.226;2022-11-21T06:51:02;4.60;;;2.30;;
18893;SDS011;9579;49.488;8.226;2022-11-21T06:53:53;3.80;;;2.50;;
18893;SDS011;9579;49.488;8.226;2022-11-21T06:56:41;5.47;;;2.50;;
18893;SDS011;9579;49.488;8.226;2022-11-21T06:59:28;5.07;;;2.60;;
18893;SDS011;9579;49.488;8.226;2022-11-21T07:02:24;4.53;;;2.33;;
18893;SDS011;9579;49.488;8.226;2022-11-21T07:05:11;4.53;;;2.43;;
18893;SDS011;9579;49.488;8.226;2022-11-21T07:08:16;5.17;;;2.20;;
18893;SDS011;9579;49.488;8.226;2022-11-21T07:11:08;4.97;;;2.60;;
18893;SDS011;9579;49.488;8.226;2022-11-21T07:14:02;5.53;;;2.90;;
18893;SDS011;9579;49.488;8.226;2022-11-21T07:20:22;4.77;;;2.97;;
18893;SDS011;9579;49.488;8.226;2022-11-21T07:23:09;3.93;;;2.80;;
18893;SDS011;9579;49.488;8.226;2022-11-21T07:25:58;5.20;;;2.67;;
18893;SDS011;9579;49.488;8.226;2022-11-21T07:28:45;5.40;;;3.10;;
18893;SDS011;9579;49.488;8.226;2022-11-21T07:31:32;4.57;;;2.67;;
18893;SDS011;9579;49.488;8.226;2022-11-21T07:34:19;4.30;;;2.60;;
18893;SDS011;9579;49.488;8.226;2022-11-21T07:37:09;4.33;;;2.40;;
18893;SDS011;9579;49.488;8.226;2022-11-21T07:39:56;4.03;;;2.30;;
18893;SDS011;9579;49.488;8.226;2022-11-21T07:42:43;6.20;;;2.83;;
18893;SDS011;9579;49.488;8.226;2022-11-21T07:45:31;6.47;;;2.60;;
18893;SDS011;9579;49.488;8.226;2022-11-21T07:48:18;5.97;;;2.57;;
18893;SDS011;9579;49.488;8.226;2022-11-21T07:51:05;4.63;;;2.60;;
18893;SDS011;9579;49.488;8.226;2022-11-21T07:53:55;8.30;;;3.57;;
18893;SDS011;9579;49.488;8.226;2022-11-21T07:56:42;4.33;;;2.57;;
18893;SDS011;9579;49.488;8.226;2022-11-21T07:59:29;5.13;;;2.40;;
18893;SDS011;9579;49.488;8.226;2022-11-21T08:02:17;4.43;;;2.50;;
18893;SDS011;9579;49.488;8.226;2022-11-21T08:05:05;5.00;;;2.33;;
18893;SDS011;9579;49.488;8.226;2022-11-21T08:07:52;4.67;;;2.27;;
18893;SDS011;9579;49.488;8.226;2022-11-21T08:10:41;5.23;;;2.60;;
18893;SDS011;9579;49.488;8.226;2022-11-21T08:13:29;3.83;;;2.13;;
18893;SDS011;9579;49.488;8.226;2022-11-21T08:16:16;5.13;;;2.27;;
18893;SDS011;9579;49.488;8.226;2022-11-21T08:19:03;5.53;;;2.13;;
18893;SDS011;9579;49.488;8.226;2022-11-21T08:21:51;4.47;;;2.10;;
18893;SDS011;9579;49.488;8.226;2022-11-21T08:24:38;3.43;;;2.00;;
18893;SDS011;9579;49.488;8.226;2022-11-21T08:27:26;4.70;;;2.37;;
18893;SDS011;9579;49.488;8.226;2022-11-21T08:30:14;5.63;;;2.53;;
18893;SDS011;9579;49.488;8.226;2022-11-21T08:33:01;3.67;;;1.90;;
18893;SDS011;9579;49.488;8.226;2022-11-21T08:35:49;4.63;;;2.40;;
18893;SDS011;9579;49.488;8.226;2022-11-21T08:38:36;3.57;;;2.10;;
18893;SDS011;9579;49.488;8.226;2022-11-21T08:41:23;3.83;;;2.07;;
18893;SDS011;9579;49.488;8.226;2022-11-21T08:44:34;3.20;;;1.97;;
18893;SDS011;9579;49.488;8.226;2022-11-21T08:47:21;4.23;;;2.00;;
18893;SDS011;9579;49.488;8.226;2022-11-21T08:50:08;4.47;;;2.20;;
18893;SDS011;9579;49.488;8.226;2022-11-21T08:52:58;4.37;;;2.07;;
18893;SDS011;9579;49.488;8.226;2022-11-21T08:55:46;3.50;;;2.20;;
18893;SDS011;9579;49.488;8.226;2022-11-21T08:58:33;2.97;;;1.80;;
18893;SDS011;9579;49.488;8.226;2022-11-21T09:01:21;3.53;;;1.90;;
18893;SDS011;9579;49.488;8.226;2022-11-21T09:04:09;3.73;;;2.10;;
18893;SDS011;9579;49.488;8.226;2022-11-21T09:06:58;3.67;;;2.23;;
18893;SDS011;9579;49.488;8.226;2022-11-21T09:09:46;4.43;;;1.80;;
18893;SDS011;9579;49.488;8.226;2022-11-21T09:12:33;3.83;;;1.80;;
18893;SDS011;9579;49.488;8.226;2022-11-21T09:15:20;3.63;;;1.93;;
18893;SDS011;9579;49.488;8.226;2022-11-21T09:18:26;4.73;;;1.90;;
18893;SDS011;9579;49.488;8.226;2022-11-21T09:21:13;4.50;;;2.30;;
18893;SDS011;9579;49.488;8.226;2022-11-21T09:24:01;4.13;;;2.13;;
18893;SDS011;9579;49.488;8.226;2022-11-21T09:26:48;3.40;;;2.10;;
18893;SDS011;9579;49.488;8.226;2022-11-21T09:29:35;3.73;;;2.10;;
18893;SDS011;9579;49.488;8.226;2022-11-21T09:32:22;5.00;;;2.13;;
18893;SDS011;9579;49.488;8.226;2022-11-21T09:35:11;3.93;;;2.07;;
18893;SDS011;9579;49.488;8.226;2022-11-21T09:37:58;4.37;;;2.10;;
18893;SDS011;9579;49.488;8.226;2022-11-21T09:40:45;5.13;;;2.57;;
18893;SDS011;9579;49.488;8.226;2022-11-21T09:43:37;4.07;;;2.10;;
18893;SDS011;9579;49.488;8.226;2022-11-21T09:46:31;5.13;;;2.33;;
18893;SDS011;9579;49.488;8.226;2022-11-21T09:49:25;4.60;;;2.23;;
18893;SDS011;9579;49.488;8.226;2022-11-21T09:52:14;4.57;;;2.23;;
18893;SDS011;9579;49.488;8.226;2022-11-21T09:55:05;5.67;;;2.50;;
18893;SDS011;9579;49.488;8.226;2022-11-21T09:58:03;6.27;;;2.43;;
18893;SDS011;9579;49.488;8.226;2022-11-21T10:00:52;5.20;;;2.20;;
18893;SDS011;9579;49.488;8.226;2022-11-21T10:03:40;6.77;;;2.33;;
18893;SDS011;9579;49.488;8.226;2022-11-21T10:06:30;4.60;;;2.30;;
18893;SDS011;9579;49.488;8.226;2022-11-21T10:09:23;5.10;;;2.23;;
18893;SDS011;9579;49.488;8.226;2022-11-21T10:12:19;5.20;;;2.63;;
18893;SDS011;9579;49.488;8.226;2022-11-21T10:15:34;5.17;;;2.43;;
18893;SDS011;9579;49.488;8.226;2022-11-21T10:18:47;4.20;;;2.50;;
18893;SDS011;9579;49.488;8.226;2022-11-21T10:21:53;4.63;;;2.30;;
18893;SDS011;9579;49.488;8.226;2022-11-21T10:24:55;5.97;;;2.40;;
18893;SDS011;9579;49.488;8.226;2022-11-21T10:27:49;6.33;;;3.83;;
18893;SDS011;9579;49.488;8.226;2022-11-21T10:30:39;4.67;;;2.30;;
18893;SDS011;9579;49.488;8.226;2022-11-21T10:33:30;4.37;;;2.37;;
18893;SDS011;9579;49.488;8.226;2022-11-21T10:36:22;4.03;;;2.17;;
18893;SDS011;9579;49.488;8.226;2022-11-21T10:39:13;5.17;;;2.30;;
18893;SDS011;9579;49.488;8.226;2022-11-21T10:42:10;6.50;;;2.10;;
18893;SDS011;9579;49.488;8.226;2022-11-21T10:45:02;4.67;;;2.10;;
18893;SDS011;9579;49.488;8.226;2022-11-21T10:48:03;5.87;;;2.20;;
18893;SDS011;9579;49.488;8.226;2022-11-21T10:51:03;6.70;;;2.20;;
18893;SDS011;9579;49.488;8.226;2022-11-21T10:54:05;3.90;;;1.90;;
18893;SDS011;9579;49.488;8.226;2022-11-21T10:57:13;5.00;;;2.20;;
18893;SDS011;9579;49.488;8.226;2022-11-21T11:00:13;4.83;;;2.50;;
18893;SDS011;9579;49.488;8.226;2022-11-21T11:03:04;4.23;;;2.23;;
18893;SDS011;9579;49.488;8.226;2022-11-21T11:06:01;3.87;;;2.33;;
18893;SDS011;9579;49.488;8.226;2022-11-21T11:08:48;3.50;;;1.87;;
18893;SDS011;9579;49.488;8.226;2022-11-21T11:11:36;4.37;;;2.10;;
18893;SDS011;9579;49.488;8.226;2022-11-21T11:14:28;5.60;;;2.17;;
18893;SDS011;9579;49.488;8.226;2022-11-21T11:17:24;4.57;;;1.97;;
18893;SDS011;9579;49.488;8.226;2022-11-21T11:20:29;5.47;;;2.10;;
18893;SDS011;9579;49.488;8.226;2022-11-21T11:23:22;4.43;;;2.13;;
18893;SDS011;9579;49.488;8.226;2022-11-21T11:26:18;4.03;;;1.93;;
18893;SDS011;9579;49.488;8.226;2022-11-21T11:29:08;4.83;;;2.10;;
18893;SDS011;9579;49.488;8.226;2022-11-21T11:32:01;4.40;;;2.00;;
18893;SDS011;9579;49.488;8.226;2022-11-21T11:34:58;5.23;;;2.30;;
18893;SDS011;9579;49.488;8.226;2022-11-21T11:38:04;4.33;;;2.30;;
18893;SDS011;9579;49.488;8.226;2022-11-21T11:40:55;3.97;;;2.10;;
18893;SDS011;9579;49.488;8.226;2022-11-21T11:43:50;5.47;;;2.20;;
18893;SDS011;9579;49.488;8.226;2022-11-21T11:47:07;4.53;;;1.90;;
18893;SDS011;9579;49.488;8.226;2022-11-21T11:50:18;7.33;;;2.23;;
18893;SDS011;9579;49.488;8.226;2022-11-21T11:53:09;4.23;;;2.13;;
18893;SDS011;9579;49.488;8.226;2022-11-21T11:55:59;4.73;;;1.97;;
18893;SDS011;9579;49.488;8.226;2022-11-21T11:58:54;6.00;;;2.20;;
18893;SDS011;9579;49.488;8.226;2022-11-21T12:01:47;5.73;;;2.10;;
18893;SDS011;9579;49.488;8.226;2022-11-21T12:04:41;6.53;;;2.33;;
18893;SDS011;9579;49.488;8.226;2022-11-21T12:07:33;3.97;;;2.00;;
18893;SDS011;9579;49.488;8.226;2022-11-21T12:10:26;4.90;;;2.30;;
18893;SDS011;9579;49.488;8.226;2022-11-21T12:13:18;4.23;;;2.10;;
18893;SDS011;9579;49.488;8.226;2022-11-21T12:16:07;4.13;;;2.10;;
18893;SDS011;9579;49.488;8.226;2022-11-21T12:18:59;5.27;;;2.40;;
18893;SDS011;9579;49.488;8.226;2022-11-21T12:21:52;4.90;;;2.30;;
18893;SDS011;9579;49.488;8.226;2022-11-21T12:24:39;5.10;;;2.20;;
18893;SDS011;9579;49.488;8.226;2022-11-21T12:27:27;4.70;;;2.10;;
18893;SDS011;9579;49.488;8.226;2022-11-21T12:30:19;4.70;;;2.22;;
18893;SDS011;9579;49.488;8.226;2022-11-21T12:33:26;4.47;;;2.20;;
18893;SDS011;9579;49.488;8.226;2022-11-21T12:36:17;4.60;;;2.20;;
18893;SDS011;9579;49.488;8.226;2022-11-21T12:42:38;5.20;;;2.50;;
18893;SDS011;9579;49.488;8.226;2022-11-21T12:45:36;6.57;;;2.30;;
18893;SDS011;9579;49.488;8.226;2022-11-21T12:48:36;4.03;;;2.13;;
18893;SDS011;9579;49.488;8.226;2022-11-21T12:51:54;4.05;;;2.20;;
18893;SDS011;9579;49.488;8.226;2022-11-21T12:55:12;4.93;;;2.22;;
18893;SDS011;9579;49.488;8.226;2022-11-21T12:58:09;4.57;;;2.17;;
18893;SDS011;9579;49.488;8.226;2022-11-21T13:01:11;3.47;;;1.90;;
18893;SDS011;9579;49.488;8.226;2022-11-21T13:04:04;4.32;;;2.08;;
18893;SDS011;9579;49.488;8.226;2022-11-21T13:06:54;4.32;;;2.13;;
18893;SDS011;9579;49.488;8.226;2022-11-21T13:09:44;4.03;;;2.00;;
18893;SDS011;9579;49.488;8.226;2022-11-21T13:12:37;4.65;;;2.25;;
18893;SDS011;9579;49.488;8.226;2022-11-21T13:15:33;3.78;;;2.25;;
18893;SDS011;9579;49.488;8.226;2022-11-21T13:18:24;3.88;;;2.00;;
18893;SDS011;9579;49.488;8.226;2022-11-21T13:27:41;7.25;;;2.30;;
18893;SDS011;9579;49.488;8.226;2022-11-21T13:30:29;5.15;;;2.05;;
18893;SDS011;9579;49.488;8.226;2022-11-21T13:36:37;5.13;;;2.35;;
18893;SDS011;9579;49.488;8.226;2022-11-21T13:39:27;4.68;;;2.20;;
18893;SDS011;9579;49.488;8.226;2022-11-21T13:42:15;6.30;;;2.40;;
18893;SDS011;9579;49.488;8.226;2022-11-21T13:45:36;5.18;;;2.30;;
18893;SDS011;9579;49.488;8.226;2022-11-21T13:51:46;4.45;;;2.28;;
18893;SDS011;9579;49.488;8.226;2022-11-21T13:54:56;4.78;;;2.30;;
18893;SDS011;9579;49.488;8.226;2022-11-21T13:58:03;4.22;;;2.25;;
18893;SDS011;9579;49.488;8.226;2022-11-21T14:01:09;6.70;;;2.40;;
18893;SDS011;9579;49.488;8.226;2022-11-21T14:07:39;4.43;;;2.23;;
18893;SDS011;9579;49.488;8.226;2022-11-21T14:10:29;6.03;;;2.47;;
18893;SDS011;9579;49.488;8.226;2022-11-21T14:13:19;5.40;;;2.30;;
18893;SDS011;9579;49.488;8.226;2022-11-21T14:16:15;6.87;;;2.57;;
18893;SDS011;9579;49.488;8.226;2022-11-21T14:19:12;5.50;;;2.23;;
18893;SDS011;9579;49.488;8.226;2022-11-21T14:22:04;4.80;;;2.37;;
18893;SDS011;9579;49.488;8.226;2022-11-21T14:24:59;6.87;;;2.50;;
18893;SDS011;9579;49.488;8.226;2022-11-21T14:27:47;4.53;;;2.20;;
18893;SDS011;9579;49.488;8.226;2022-11-21T14:30:37;5.23;;;2.33;;
18893;SDS011;9579;49.488;8.226;2022-11-21T14:33:27;5.13;;;2.47;;
18893;SDS011;9579;49.488;8.226;2022-11-21T14:36:17;6.43;;;2.63;;
18893;SDS011;9579;49.488;8.226;2022-11-21T14:39:07;5.83;;;2.53;;
18893;SDS011;9579;49.488;8.226;2022-11-21T14:41:55;5.83;;;2.40;;
18893;SDS011;9579;49.488;8.226;2022-11-21T14:44:44;7.90;;;2.70;;
18893;SDS011;9579;49.488;8.226;2022-11-21T14:47:31;6.60;;;2.70;;
18893;SDS011;9579;49.488;8.226;2022-11-21T14:50:22;5.13;;;2.60;;
18893;SDS011;9579;49.488;8.226;2022-11-21T14:53:11;7.43;;;2.70;;
18893;SDS011;9579;49.488;8.226;2022-11-21T14:55:59;5.13;;;2.50;;
18893;SDS011;9579;49.488;8.226;2022-11-21T14:58:48;4.37;;;2.40;;
18893;SDS011;9579;49.488;8.226;2022-11-21T15:01:37;3.50;;;2.50;;
18893;SDS011;9579;49.488;8.226;2022-11-21T15:04:28;5.00;;;2.57;;
18893;SDS011;9579;49.488;8.226;2022-11-21T15:07:18;7.17;;;2.97;;
18893;SDS011;9579;49.488;8.226;2022-11-21T15:10:07;6.37;;;3.20;;
18893;SDS011;9579;49.488;8.226;2022-11-21T15:12:59;6.10;;;3.07;;
18893;SDS011;9579;49.488;8.226;2022-11-21T15:15:51;5.33;;;2.50;;
18893;SDS011;9579;49.488;8.226;2022-11-21T15:18:40;11.10;;;7.20;;
18893;SDS011;9579;49.488;8.226;2022-11-21T15:21:27;8.97;;;4.57;;
18893;SDS011;9579;49.488;8.226;2022-11-21T15:24:16;6.83;;;3.23;;
18893;SDS011;9579;49.488;8.226;2022-11-21T15:27:26;5.80;;;3.30;;
18893;SDS011;9579;49.488;8.226;2022-11-21T15:30:21;6.03;;;4.03;;
18893;SDS011;9579;49.488;8.226;2022-11-21T15:33:11;9.10;;;5.63;;
18893;SDS011;9579;49.488;8.226;2022-11-21T15:36:10;8.13;;;3.80;;
18893;SDS011;9579;49.488;8.226;2022-11-21T15:39:00;9.27;;;3.70;;
18893;SDS011;9579;49.488;8.226;2022-11-21T15:41:48;7.77;;;3.40;;
18893;SDS011;9579;49.488;8.226;2022-11-21T15:44:35;6.70;;;3.40;;
18893;SDS011;9579;49.488;8.226;2022-11-21T15:47:23;9.00;;;3.43;;
18893;SDS011;9579;49.488;8.226;2022-11-21T15:50:10;9.33;;;3.57;;
18893;SDS011;9579;49.488;8.226;2022-11-21T15:52:57;9.23;;;3.80;;
18893;SDS011;9579;49.488;8.226;2022-11-21T15:55:44;5.93;;;3.17;;
18893;SDS011;9579;49.488;8.226;2022-11-21T15:58:31;7.63;;;4.03;;
18893;SDS011;9579;49.488;8.226;2022-11-21T16:01:19;7.03;;;4.03;;
18893;SDS011;9579;49.488;8.226;2022-11-21T16:04:10;6.17;;;3.80;;
18893;SDS011;9579;49.488;8.226;2022-11-21T16:06:57;11.10;;;5.03;;
18893;SDS011;9579;49.488;8.226;2022-11-21T16:09:44;8.33;;;4.30;;
18893;SDS011;9579;49.488;8.226;2022-11-21T16:12:32;7.33;;;4.03;;
18893;SDS011;9579;49.488;8.226;2022-11-21T16:15:19;6.97;;;4.17;;
18893;SDS011;9579;49.488;8.226;2022-11-21T16:18:06;9.47;;;4.10;;
18893;SDS011;9579;49.488;8.226;2022-11-21T16:21:04;9.23;;;4.33;;
18893;SDS011;9579;49.488;8.226;2022-11-21T16:23:52;7.97;;;4.10;;
18893;SDS011;9579;49.488;8.226;2022-11-21T16:26:40;8.50;;;4.53;;
18893;SDS011;9579;49.488;8.226;2022-11-21T16:29:27;8.57;;;5.00;;
18893;SDS011;9579;49.488;8.226;2022-11-21T16:32:14;8.67;;;5.17;;
18893;SDS011;9579;49.488;8.226;2022-11-21T16:35:01;80.13;;;50.27;;
18893;SDS011;9579;49.488;8.226;2022-11-21T16:37:49;112.73;;;65.33;;
18893;SDS011;9579;49.488;8.226;2022-11-21T16:40:38;62.20;;;38.27;;
18893;SDS011;9579;49.488;8.226;2022-11-21T16:43:26;32.97;;;22.20;;
18893;SDS011;9579;49.488;8.226;2022-11-21T16:46:13;22.03;;;14.33;;
18893;SDS011;9579;49.488;8.226;2022-11-21T16:49:01;30.23;;;21.60;;
18893;SDS011;9579;49.488;8.226;2022-11-21T16:51:49;30.60;;;19.47;;
18893;SDS011;9579;49.488;8.226;2022-11-21T16:54:37;20.87;;;13.60;;
18893;SDS011;9579;49.488;8.226;2022-11-21T16:57:26;21.37;;;12.70;;
18893;SDS011;9579;49.488;8.226;2022-11-21T17:00:13;18.03;;;12.23;;
18893;SDS011;9579;49.488;8.226;2022-11-21T17:03:01;17.03;;;12.13;;
18893;SDS011;9579;49.488;8.226;2022-11-21T17:05:54;16.63;;;11.50;;
18893;SDS011;9579;49.488;8.226;2022-11-21T17:08:42;17.40;;;11.57;;
18893;SDS011;9579;49.488;8.226;2022-11-21T17:11:30;13.30;;;9.10;;
18893;SDS011;9579;49.488;8.226;2022-11-21T17:14:18;12.80;;;7.93;;
18893;SDS011;9579;49.488;8.226;2022-11-21T17:17:05;13.17;;;8.70;;
18893;SDS011;9579;49.488;8.226;2022-11-21T17:19:52;12.33;;;6.73;;
18893;SDS011;9579;49.488;8.226;2022-11-21T17:22:39;11.13;;;6.97;;
18893;SDS011;9579;49.488;8.226;2022-11-21T17:25:26;10.13;;;7.40;;
18893;SDS011;9579;49.488;8.226;2022-11-21T17:28:14;9.63;;;7.70;;
18893;SDS011;9579;49.488;8.226;2022-11-21T17:31:04;8.67;;;6.07;;
18893;SDS011;9579;49.488;8.226;2022-11-21T17:33:52;8.07;;;4.53;;
18893;SDS011;9579;49.488;8.226;2022-11-21T17:36:40;11.17;;;4.83;;
18893;SDS011;9579;49.488;8.226;2022-11-21T17:39:27;10.27;;;5.13;;
18893;SDS011;9579;49.488;8.226;2022-11-21T17:42:14;9.97;;;4.90;;
18893;SDS011;9579;49.488;8.226;2022-11-21T17:45:03;8.27;;;4.70;;
18893;SDS011;9579;49.488;8.226;2022-11-21T17:47:51;9.33;;;4.87;;
18893;SDS011;9579;49.488;8.226;2022-11-21T17:50:38;7.73;;;4.43;;
18893;SDS011;9579;49.488;8.226;2022-11-21T17:53:25;8.87;;;4.53;;
18893;SDS011;9579;49.488;8.226;2022-11-21T17:56:13;8.17;;;4.50;;
18893;SDS011;9579;49.488;8.226;2022-11-21T17:59:01;10.43;;;5.10;;
18893;SDS011;9579;49.488;8.226;2022-11-21T18:01:51;7.13;;;4.67;;
18893;SDS011;9579;49.488;8.226;2022-11-21T18:04:38;9.17;;;5.17;;
18893;SDS011;9579;49.488;8.226;2022-11-21T18:07:25;9.57;;;5.30;;
18893;SDS011;9579;49.488;8.226;2022-11-21T18:10:14;8.07;;;5.00;;
18893;SDS011;9579;49.488;8.226;2022-11-21T18:13:01;7.30;;;5.23;;
18893;SDS011;9579;49.488;8.226;2022-11-21T18:15:48;7.67;;;4.83;;
18893;SDS011;9579;49.488;8.226;2022-11-21T18:18:37;8.50;;;5.07;;
18893;SDS011;9579;49.488;8.226;2022-11-21T18:21:25;8.20;;;4.90;;
18893;SDS011;9579;49.488;8.226;2022-11-21T18:24:13;4.80;;;4.20;;
18893;SDS011;9579;49.488;8.226;2022-11-21T18:27:00;6.33;;;4.23;;
18893;SDS011;9579;49.488;8.226;2022-11-21T18:29:47;8.00;;;5.60;;
18893;SDS011;9579;49.488;8.226;2022-11-21T18:32:34;8.70;;;5.27;;
18893;SDS011;9579;49.488;8.226;2022-11-21T18:35:22;7.27;;;4.20;;
18893;SDS011;9579;49.488;8.226;2022-11-21T18:38:10;7.13;;;4.70;;
18893;SDS011;9579;49.488;8.226;2022-11-21T18:41:01;6.00;;;4.10;;
18893;SDS011;9579;49.488;8.226;2022-11-21T18:43:50;5.87;;;3.90;;
18893;SDS011;9579;49.488;8.226;2022-11-21T18:46:38;5.67;;;3.60;;
18893;SDS011;9579;49.488;8.226;2022-11-21T18:49:25;5.70;;;3.50;;
18893;SDS011;9579;49.488;8.226;2022-11-21T18:52:13;8.27;;;5.00;;
18893;SDS011;9579;49.488;8.226;2022-11-21T18:55:02;9.90;;;5.37;;
18893;SDS011;9579;49.488;8.226;2022-11-21T18:57:50;7.83;;;5.43;;
18893;SDS011;9579;49.488;8.226;2022-11-21T19:00:37;9.97;;;5.63;;
18893;SDS011;9579;49.488;8.226;2022-11-21T19:03:24;8.30;;;5.67;;
18893;SDS011;9579;49.488;8.226;2022-11-21T19:06:12;9.23;;;5.67;;
18893;SDS011;9579;49.488;8.226;2022-11-21T19:09:03;8.23;;;5.60;;
18893;SDS011;9579;49.488;8.226;2022-11-21T19:11:51;21.47;;;11.97;;
18893;SDS011;9579;49.488;8.226;2022-11-21T19:14:39;18.40;;;11.03;;
18893;SDS011;9579;49.488;8.226;2022-11-21T19:17:26;12.33;;;7.27;;
18893;SDS011;9579;49.488;8.226;2022-11-21T19:20:13;10.57;;;6.90;;
18893;SDS011;9579;49.488;8.226;2022-11-21T19:23:00;10.50;;;6.50;;
18893;SDS011;9579;49.488;8.226;2022-11-21T19:25:48;9.27;;;7.07;;
18893;SDS011;9579;49.488;8.226;2022-11-21T19:28:35;10.07;;;7.13;;
18893;SDS011;9579;49.488;8.226;2022-11-21T19:31:24;11.17;;;7.50;;
18893;SDS011;9579;49.488;8.226;2022-11-21T19:34:11;10.67;;;8.50;;
18893;SDS011;9579;49.488;8.226;2022-11-21T19:36:59;11.73;;;9.07;;
18893;SDS011;9579;49.488;8.226;2022-11-21T19:39:47;11.73;;;7.93;;
18893;SDS011;9579;49.488;8.226;2022-11-21T19:42:37;9.87;;;6.93;;
18893;SDS011;9579;49.488;8.226;2022-11-21T19:45:24;9.40;;;6.50;;
18893;SDS011;9579;49.488;8.226;2022-11-21T19:48:11;7.07;;;5.63;;
18893;SDS011;9579;49.488;8.226;2022-11-21T19:50:59;8.07;;;5.10;;
18893;SDS011;9579;49.488;8.226;2022-11-21T19:53:47;8.13;;;5.57;;
18893;SDS011;9579;49.488;8.226;2022-11-21T19:56:37;7.33;;;5.40;;
18893;SDS011;9579;49.488;8.226;2022-11-21T19:59:26;7.97;;;5.10;;
18893;SDS011;9579;49.488;8.226;2022-11-21T20:02:16;6.60;;;4.80;;
18893;SDS011;9579;49.488;8.226;2022-11-21T20:05:05;6.73;;;5.00;;
18893;SDS011;9579;49.488;8.226;2022-11-21T20:07:59;7.37;;;5.53;;
18893;SDS011;9579;49.488;8.226;2022-11-21T20:10:46;15.27;;;12.67;;
18893;SDS011;9579;49.488;8.226;2022-11-21T20:13:33;13.63;;;9.50;;
18893;SDS011;9579;49.488;8.226;2022-11-21T20:16:22;9.53;;;7.30;;
18893;SDS011;9579;49.488;8.226;2022-11-21T20:19:10;9.83;;;7.60;;
18893;SDS011;9579;49.488;8.226;2022-11-21T20:22:00;11.10;;;8.37;;
18893;SDS011;9579;49.488;8.226;2022-11-21T20:24:47;8.23;;;7.27;;
18893;SDS011;9579;49.488;8.226;2022-11-21T20:27:34;8.17;;;6.90;;
18893;SDS011;9579;49.488;8.226;2022-11-21T20:30:21;6.57;;;5.80;;
18893;SDS011;9579;49.488;8.226;2022-11-21T20:33:11;10.47;;;7.17;;
18893;SDS011;9579;49.488;8.226;2022-11-21T20:36:01;9.10;;;7.50;;
18893;SDS011;9579;49.488;8.226;2022-11-21T20:38:49;9.30;;;6.23;;
18893;SDS011;9579;49.488;8.226;2022-11-21T20:41:40;5.80;;;4.63;;
18893;SDS011;9579;49.488;8.226;2022-11-21T20:44:27;6.27;;;4.87;;
18893;SDS011;9579;49.488;8.226;2022-11-21T20:47:16;7.27;;;4.70;;
18893;SDS011;9579;49.488;8.226;2022-11-21T20:50:05;6.43;;;4.40;;
18893;SDS011;9579;49.488;8.226;2022-11-21T20:52:53;6.70;;;4.20;;
18893;SDS011;9579;49.488;8.226;2022-11-21T20:55:40;6.20;;;4.50;;
18893;SDS011;9579;49.488;8.226;2022-11-21T20:58:30;6.40;;;4.60;;
18893;SDS011;9579;49.488;8.226;2022-11-21T21:01:19;5.37;;;3.97;;
18893;SDS011;9579;49.488;8.226;2022-11-21T21:04:08;5.63;;;3.87;;
18893;SDS011;9579;49.488;8.226;2022-11-21T21:06:57;5.93;;;3.90;;
18893;SDS011;9579;49.488;8.226;2022-11-21T21:09:44;8.47;;;4.13;;
18893;SDS011;9579;49.488;8.226;2022-11-21T21:12:31;6.03;;;4.23;;
18893;SDS011;9579;49.488;8.226;2022-11-21T21:15:18;6.97;;;4.60;;
18893;SDS011;9579;49.488;8.226;2022-11-21T21:18:05;6.13;;;4.70;;
18893;SDS011;9579;49.488;8.226;2022-11-21T21:20:52;5.93;;;4.20;;
18893;SDS011;9579;49.488;8.226;2022-11-21T21:23:41;6.53;;;4.60;;
18893;SDS011;9579;49.488;8.226;2022-11-21T21:26:30;6.97;;;4.40;;
18893;SDS011;9579;49.488;8.226;2022-11-21T21:29:19;6.40;;;4.30;;
18893;SDS011;9579;49.488;8.226;2022-11-21T21:32:07;5.03;;;4.13;;
18893;SDS011;9579;49.488;8.226;2022-11-21T21:34:54;7.00;;;3.93;;
18893;SDS011;9579;49.488;8.226;2022-11-21T21:37:43;4.73;;;3.93;;
18893;SDS011;9579;49.488;8.226;2022-11-21T21:40:32;7.50;;;4.43;;
18893;SDS011;9579;49.488;8.226;2022-11-21T21:43:19;6.07;;;4.10;;
18893;SDS011;9579;49.488;8.226;2022-11-21T21:46:06;6.97;;;4.80;;
18893;SDS011;9579;49.488;8.226;2022-11-21T21:48:56;7.77;;;4.97;;
18893;SDS011;9579;49.488;8.226;2022-11-21T21:51:43;5.93;;;5.03;;
18893;SDS011;9579;49.488;8.226;2022-11-21T21:54:30;6.57;;;4.80;;
18893;SDS011;9579;49.488;8.226;2022-11-21T21:57:20;7.20;;;5.00;;
18893;SDS011;9579;49.488;8.226;2022-11-21T22:00:08;6.67;;;5.13;;
18893;SDS011;9579;49.488;8.226;2022-11-21T22:02:55;8.37;;;5.80;;
18893;SDS011;9579;49.488;8.226;2022-11-21T22:05:42;6.10;;;5.10;;
18893;SDS011;9579;49.488;8.226;2022-11-21T22:08:30;7.13;;;5.60;;
18893;SDS011;9579;49.488;8.226;2022-11-21T22:11:18;7.23;;;5.00;;
18893;SDS011;9579;49.488;8.226;2022-11-21T22:14:10;8.47;;;5.17;;
18893;SDS011;9579;49.488;8.226;2022-11-21T22:16:59;5.97;;;5.20;;
18893;SDS011;9579;49.488;8.226;2022-11-21T22:19:46;7.13;;;5.63;;
18893;SDS011;9579;49.488;8.226;2022-11-21T22:22:33;6.10;;;5.20;;
18893;SDS011;9579;49.488;8.226;2022-11-21T22:25:23;7.23;;;5.63;;
18893;SDS011;9579;49.488;8.226;2022-11-21T22:28:10;7.20;;;5.63;;
18893;SDS011;9579;49.488;8.226;2022-11-21T22:31:00;7.03;;;5.90;;
18893;SDS011;9579;49.488;8.226;2022-11-21T22:33:47;7.47;;;5.33;;
18893;SDS011;9579;49.488;8.226;2022-11-21T22:36:34;7.03;;;5.47;;
18893;SDS011;9579;49.488;8.226;2022-11-21T22:39:21;6.60;;;5.33;;
18893;SDS011;9579;49.488;8.226;2022-11-21T22:42:08;6.63;;;4.97;;
18893;SDS011;9579;49.488;8.226;2022-11-21T22:44:55;6.67;;;4.73;;
18893;SDS011;9579;49.488;8.226;2022-11-21T22:47:44;6.27;;;5.00;;
18893;SDS011;9579;49.488;8.226;2022-11-21T22:50:31;6.23;;;4.83;;
18893;SDS011;9579;49.488;8.226;2022-11-21T22:53:18;7.33;;;4.80;;
18893;SDS011;9579;49.488;8.226;2022-11-21T22:56:06;5.53;;;4.70;;
18893;SDS011;9579;49.488;8.226;2022-11-21T22:58:54;6.80;;;4.73;;
18893;SDS011;9579;49.488;8.226;2022-11-21T23:01:41;5.67;;;4.43;;
18893;SDS011;9579;49.488;8.226;2022-11-21T23:04:29;5.20;;;4.10;;
18893;SDS011;9579;49.488;8.226;2022-11-21T23:07:16;6.13;;;4.40;;
18893;SDS011;9579;49.488;8.226;2022-11-21T23:10:04;5.73;;;4.10;;
18893;SDS011;9579;49.488;8.226;2022-11-21T23:12:51;6.23;;;4.20;;
18893;SDS011;9579;49.488;8.226;2022-11-21T23:15:38;6.30;;;4.47;;
18893;SDS011;9579;49.488;8.226;2022-11-21T23:18:25;7.53;;;4.73;;
18893;SDS011;9579;49.488;8.226;2022-11-21T23:21:14;6.37;;;4.73;;
18893;SDS011;9579;49.488;8.226;2022-11-21T23:24:01;7.13;;;5.40;;
18893;SDS011;9579;49.488;8.226;2022-11-21T23:26:48;6.60;;;4.50;;
18893;SDS011;9579;49.488;8.226;2022-11-21T23:29:35;6.77;;;4.13;;
